sensor_id;sensor_type;location;lat;lon;timestamp;pressure;altitude;pressure_sealevel;temperature;humidity
64503;BME280;50971;51.940;21.258;2024-02-26T00:00:34;99769.03;;;4.26;100.00
64503;BME280;50971;51.940;21.258;2024-02-26T00:10:36;99762.28;;;4.03;100.00
64503;BME280;50971;51.940;21.258;2024-02-26T00:20:38;99767.18;;;3.91;100.00
64503;BME280;50971;51.940;21.258;2024-02-26T00:30:41;99754.05;;;3.79;100.00
64503;BME280;50971;51.940;21.258;2024-02-26T00:40:43;99744.74;;;3.78;100.00
64503;BME280;50971;51.940;21.258;2024-02-26T00:50:45;99747.39;;;3.79;100.00
64503;BME280;50971;51.940;21.258;2024-02-26T01:00:47;99745.52;;;3.66;100.00
64503;BME280;50971;51.940;21.258;2024-02-26T01:10:49;99738.88;;;3.58;100.00
64503;BME280;50971;51.940;21.258;2024-02-26T01:20:50;99734.82;;;3.59;100.00
64503;BME280;50971;51.940;21.258;2024-02-26T01:30:52;99730.13;;;3.22;100.00
64503;BME280;50971;51.940;21.258;2024-02-26T01:40:54;99728.84;;;2.72;100.00
64503;BME280;50971;51.940;21.258;2024-02-26T01:50:56;99729.09;;;2.64;100.00
64503;BME280;50971;51.940;21.258;2024-02-26T02:00:59;99728.65;;;2.90;100.00
64503;BME280;50971;51.940;21.258;2024-02-26T02:11:02;99733.25;;;2.95;100.00
64503;BME280;50971;51.940;21.258;2024-02-26T02:21:11;99736.85;;;3.13;100.00
64503;BME280;50971;51.940;21.258;2024-02-26T02:31:13;99738.34;;;2.96;100.00
64503;BME280;50971;51.940;21.258;2024-02-26T02:41:15;99750.02;;;2.74;100.00
64503;BME280;50971;51.940;21.258;2024-02-26T02:51:17;99752.60;;;2.90;100.00
64503;BME280;50971;51.940;21.258;2024-02-26T03:01:19;99762.45;;;2.97;100.00
64503;BME280;50971;51.940;21.258;2024-02-26T03:11:20;99757.90;;;2.89;100.00
64503;BME280;50971;51.940;21.258;2024-02-26T03:21:22;99752.08;;;3.01;100.00
64503;BME280;50971;51.940;21.258;2024-02-26T03:31:24;99762.42;;;3.18;100.00
64503;BME280;50971;51.940;21.258;2024-02-26T03:41:26;99782.09;;;2.78;100.00
64503;BME280;50971;51.940;21.258;2024-02-26T03:51:27;99770.32;;;2.19;100.00
64503;BME280;50971;51.940;21.258;2024-02-26T04:01:33;99764.59;;;1.81;100.00
64503;BME280;50971;51.940;21.258;2024-02-26T04:11:35;99771.89;;;1.72;100.00
64503;BME280;50971;51.940;21.258;2024-02-26T04:21:36;99781.48;;;1.90;100.00
64503;BME280;50971;51.940;21.258;2024-02-26T04:31:38;99778.30;;;2.08;100.00
64503;BME280;50971;51.940;21.258;2024-02-26T04:41:41;99770.67;;;2.39;100.00
64503;BME280;50971;51.940;21.258;2024-02-26T04:51:43;99763.83;;;2.60;100.00
64503;BME280;50971;51.940;21.258;2024-02-26T05:01:44;99759.30;;;2.84;100.00
64503;BME280;50971;51.940;21.258;2024-02-26T05:11:46;99760.02;;;3.01;100.00
64503;BME280;50971;51.940;21.258;2024-02-26T05:21:48;99763.25;;;2.93;100.00
64503;BME280;50971;51.940;21.258;2024-02-26T05:31:52;99765.88;;;2.58;100.00
64503;BME280;50971;51.940;21.258;2024-02-26T05:41:56;99780.95;;;2.29;100.00
64503;BME280;50971;51.940;21.258;2024-02-26T05:51:57;99786.70;;;2.24;100.00
64503;BME280;50971;51.940;21.258;2024-02-26T06:01:59;99786.23;;;2.44;100.00
64503;BME280;50971;51.940;21.258;2024-02-26T06:12:01;99792.93;;;2.56;100.00
64503;BME280;50971;51.940;21.258;2024-02-26T06:22:03;99808.35;;;2.77;100.00
64503;BME280;50971;51.940;21.258;2024-02-26T06:32:05;99807.38;;;3.02;100.00
64503;BME280;50971;51.940;21.258;2024-02-26T06:42:07;99811.53;;;3.34;100.00
64503;BME280;50971;51.940;21.258;2024-02-26T06:52:09;99816.28;;;3.91;100.00
64503;BME280;50971;51.940;21.258;2024-02-26T07:02:11;99821.96;;;4.56;100.00
64503;BME280;50971;51.940;21.258;2024-02-26T07:12:13;99838.52;;;5.09;100.00
64503;BME280;50971;51.940;21.258;2024-02-26T07:22:15;99837.93;;;5.35;100.00
64503;BME280;50971;51.940;21.258;2024-02-26T07:32:17;99846.30;;;5.70;100.00
64503;BME280;50971;51.940;21.258;2024-02-26T07:42:19;99852.85;;;6.34;100.00
64503;BME280;50971;51.940;21.258;2024-02-26T07:52:21;99857.43;;;7.01;100.00
64503;BME280;50971;51.940;21.258;2024-02-26T08:02:22;99859.52;;;7.88;100.00
64503;BME280;50971;51.940;21.258;2024-02-26T08:12:24;99859.34;;;9.19;100.00
64503;BME280;50971;51.940;21.258;2024-02-26T08:22:26;99868.23;;;10.38;100.00
64503;BME280;50971;51.940;21.258;2024-02-26T08:32:28;99869.82;;;11.11;100.00
64503;BME280;50971;51.940;21.258;2024-02-26T08:42:30;99876.43;;;11.27;100.00
64503;BME280;50971;51.940;21.258;2024-02-26T08:52:32;99875.46;;;11.26;100.00
64503;BME280;50971;51.940;21.258;2024-02-26T09:02:35;99878.61;;;11.43;100.00
64503;BME280;50971;51.940;21.258;2024-02-26T09:12:37;99879.48;;;11.68;100.00
64503;BME280;50971;51.940;21.258;2024-02-26T09:22:39;99878.20;;;12.31;100.00
64503;BME280;50971;51.940;21.258;2024-02-26T09:32:41;99880.76;;;12.84;100.00
64503;BME280;50971;51.940;21.258;2024-02-26T09:42:44;99880.96;;;13.32;100.00
64503;BME280;50971;51.940;21.258;2024-02-26T09:52:47;99882.91;;;13.67;100.00
64503;BME280;50971;51.940;21.258;2024-02-26T10:02:50;99884.61;;;13.64;100.00
64503;BME280;50971;51.940;21.258;2024-02-26T10:12:53;99889.78;;;13.37;100.00
64503;BME280;50971;51.940;21.258;2024-02-26T10:22:54;99885.31;;;13.70;100.00
64503;BME280;50971;51.940;21.258;2024-02-26T10:32:56;99881.55;;;14.39;100.00
64503;BME280;50971;51.940;21.258;2024-02-26T10:42:59;99874.49;;;14.50;100.00
64503;BME280;50971;51.940;21.258;2024-02-26T10:53:01;99867.40;;;14.25;100.00
64503;BME280;50971;51.940;21.258;2024-02-26T11:03:06;99868.25;;;14.00;100.00
64503;BME280;50971;51.940;21.258;2024-02-26T11:13:12;99863.52;;;14.13;100.00
64503;BME280;50971;51.940;21.258;2024-02-26T11:23:15;99864.15;;;13.67;100.00
64503;BME280;50971;51.940;21.258;2024-02-26T11:33:17;99867.48;;;13.66;100.00
64503;BME280;50971;51.940;21.258;2024-02-26T11:43:51;99862.20;;;13.96;100.00
64503;BME280;50971;51.940;21.258;2024-02-26T11:53:55;99851.39;;;13.97;100.00
64503;BME280;50971;51.940;21.258;2024-02-26T12:03:59;99851.08;;;13.24;100.00
64503;BME280;50971;51.940;21.258;2024-02-26T12:14:01;99853.80;;;12.58;100.00
64503;BME280;50971;51.940;21.258;2024-02-26T12:24:29;99839.49;;;12.24;100.00
64503;BME280;50971;51.940;21.258;2024-02-26T12:34:31;99843.95;;;12.11;100.00
64503;BME280;50971;51.940;21.258;2024-02-26T12:44:33;99849.42;;;12.44;100.00
64503;BME280;50971;51.940;21.258;2024-02-26T12:54:35;99852.98;;;13.35;100.00
64503;BME280;50971;51.940;21.258;2024-02-26T13:04:40;99857.69;;;14.47;100.00
64503;BME280;50971;51.940;21.258;2024-02-26T13:14:42;99859.19;;;14.66;100.00
64503;BME280;50971;51.940;21.258;2024-02-26T13:24:53;99849.75;;;14.17;100.00
64503;BME280;50971;51.940;21.258;2024-02-26T13:35:10;99850.98;;;14.23;100.00
64503;BME280;50971;51.940;21.258;2024-02-26T13:45:12;99856.20;;;14.31;100.00
64503;BME280;50971;51.940;21.258;2024-02-26T13:55:14;99851.34;;;14.41;100.00
64503;BME280;50971;51.940;21.258;2024-02-26T14:05:16;99859.93;;;14.39;100.00
64503;BME280;50971;51.940;21.258;2024-02-26T14:15:18;99859.16;;;14.25;100.00
64503;BME280;50971;51.940;21.258;2024-02-26T14:25:21;99857.77;;;14.15;100.00
64503;BME280;50971;51.940;21.258;2024-02-26T14:35:23;99856.22;;;14.02;100.00
64503;BME280;50971;51.940;21.258;2024-02-26T14:45:26;99859.14;;;13.54;100.00
64503;BME280;50971;51.940;21.258;2024-02-26T14:55:28;99873.36;;;12.94;100.00
64503;BME280;50971;51.940;21.258;2024-02-26T15:05:30;99877.36;;;12.78;100.00
64503;BME280;50971;51.940;21.258;2024-02-26T15:15:31;99876.61;;;12.77;100.00
64503;BME280;50971;51.940;21.258;2024-02-26T15:25:33;99874.75;;;12.61;100.00
64503;BME280;50971;51.940;21.258;2024-02-26T15:35:35;99875.91;;;12.43;100.00
64503;BME280;50971;51.940;21.258;2024-02-26T15:45:38;99884.38;;;12.25;100.00
64503;BME280;50971;51.940;21.258;2024-02-26T15:55:40;99886.80;;;12.01;100.00
64503;BME280;50971;51.940;21.258;2024-02-26T16:05:44;99893.04;;;11.80;100.00
64503;BME280;50971;51.940;21.258;2024-02-26T16:15:58;99903.66;;;11.62;100.00
64503;BME280;50971;51.940;21.258;2024-02-26T16:26:03;99916.32;;;11.45;100.00
64503;BME280;50971;51.940;21.258;2024-02-26T16:36:05;99927.08;;;11.44;100.00
64503;BME280;50971;51.940;21.258;2024-02-26T16:46:07;99928.61;;;11.35;100.00
64503;BME280;50971;51.940;21.258;2024-02-26T16:56:10;99932.70;;;11.24;100.00
64503;BME280;50971;51.940;21.258;2024-02-26T17:06:12;99931.02;;;11.17;100.00
64503;BME280;50971;51.940;21.258;2024-02-26T17:16:14;99939.71;;;11.04;100.00
64503;BME280;50971;51.940;21.258;2024-02-26T17:26:20;99944.70;;;11.02;100.00
64503;BME280;50971;51.940;21.258;2024-02-26T17:36:23;99949.73;;;10.90;100.00
64503;BME280;50971;51.940;21.258;2024-02-26T17:46:25;99950.23;;;10.87;100.00
64503;BME280;50971;51.940;21.258;2024-02-26T17:56:27;99953.17;;;10.76;100.00
64503;BME280;50971;51.940;21.258;2024-02-26T18:06:28;99959.80;;;10.78;100.00
64503;BME280;50971;51.940;21.258;2024-02-26T18:16:31;99959.36;;;10.74;100.00
64503;BME280;50971;51.940;21.258;2024-02-26T18:26:33;99961.45;;;10.63;100.00
64503;BME280;50971;51.940;21.258;2024-02-26T18:36:36;99965.49;;;10.60;100.00
64503;BME280;50971;51.940;21.258;2024-02-26T18:46:45;99960.46;;;10.54;100.00
64503;BME280;50971;51.940;21.258;2024-02-26T18:56:47;99960.83;;;10.49;100.00
64503;BME280;50971;51.940;21.258;2024-02-26T19:06:49;99964.18;;;10.35;100.00
64503;BME280;50971;51.940;21.258;2024-02-26T19:16:55;99968.70;;;10.29;100.00
64503;BME280;50971;51.940;21.258;2024-02-26T19:26:57;99967.23;;;10.19;100.00
64503;BME280;50971;51.940;21.258;2024-02-26T19:36:59;99972.16;;;10.19;100.00
64503;BME280;50971;51.940;21.258;2024-02-26T19:47:04;99983.26;;;10.17;100.00
64503;BME280;50971;51.940;21.258;2024-02-26T19:57:06;99994.30;;;10.27;100.00
64503;BME280;50971;51.940;21.258;2024-02-26T20:07:13;99996.23;;;10.36;100.00
64503;BME280;50971;51.940;21.258;2024-02-26T20:17:16;99994.49;;;10.31;100.00
64503;BME280;50971;51.940;21.258;2024-02-26T20:27:21;99985.52;;;10.35;100.00
64503;BME280;50971;51.940;21.258;2024-02-26T20:37:22;99993.41;;;10.28;100.00
64503;BME280;50971;51.940;21.258;2024-02-26T20:47:28;99996.66;;;10.04;100.00
64503;BME280;50971;51.940;21.258;2024-02-26T20:57:30;99998.09;;;9.73;100.00
64503;BME280;50971;51.940;21.258;2024-02-26T21:07:32;100006.08;;;9.50;100.00
64503;BME280;50971;51.940;21.258;2024-02-26T21:17:35;100012.36;;;9.57;100.00
64503;BME280;50971;51.940;21.258;2024-02-26T21:27:37;100016.16;;;9.74;100.00
64503;BME280;50971;51.940;21.258;2024-02-26T21:37:39;100029.56;;;9.66;100.00
64503;BME280;50971;51.940;21.258;2024-02-26T21:47:41;100034.25;;;9.51;100.00
64503;BME280;50971;51.940;21.258;2024-02-26T21:57:42;100043.27;;;9.48;100.00
64503;BME280;50971;51.940;21.258;2024-02-26T22:07:44;100052.02;;;9.55;100.00
64503;BME280;50971;51.940;21.258;2024-02-26T22:17:46;100067.14;;;9.58;100.00
64503;BME280;50971;51.940;21.258;2024-02-26T22:27:48;100078.73;;;9.63;100.00
64503;BME280;50971;51.940;21.258;2024-02-26T22:37:50;100088.91;;;9.57;100.00
64503;BME280;50971;51.940;21.258;2024-02-26T22:47:51;100095.30;;;9.62;100.00
64503;BME280;50971;51.940;21.258;2024-02-26T22:57:53;100101.36;;;9.71;100.00
64503;BME280;50971;51.940;21.258;2024-02-26T23:07:57;100105.71;;;9.72;100.00
64503;BME280;50971;51.940;21.258;2024-02-26T23:17:59;100105.46;;;9.57;100.00
64503;BME280;50971;51.940;21.258;2024-02-26T23:28:02;100112.43;;;9.50;100.00
64503;BME280;50971;51.940;21.258;2024-02-26T23:38:04;100107.79;;;9.45;100.00
64503;BME280;50971;51.940;21.258;2024-02-26T23:48:06;100111.91;;;9.25;100.00
64503;BME280;50971;51.940;21.258;2024-02-26T23:58:09;100123.10;;;9.04;100.00
